createdAt,value
2023-02-24T00:02:04.735Z,39.93
2023-02-24T00:04:40.020Z,37.50
2023-02-24T00:07:10.967Z,37.23
2023-02-24T00:09:39.363Z,36.30
2023-02-24T00:12:14.282Z,34.90
2023-02-24T00:14:44.960Z,35.60
2023-02-24T00:17:16.324Z,36.17
2023-02-24T00:19:43.599Z,35.50
2023-02-24T00:22:11.096Z,35.57
2023-02-24T00:24:38.162Z,33.77
2023-02-24T00:27:08.140Z,34.77
2023-02-24T00:29:40.574Z,36.60
2023-02-24T00:32:13.320Z,35.70
2023-02-24T00:34:41.754Z,36.40
2023-02-24T00:37:09.522Z,34.60
2023-02-24T00:39:42.095Z,34.90
2023-02-24T00:42:09.154Z,34.50
2023-02-24T00:44:44.739Z,36.57
2023-02-24T00:47:13.582Z,34.97
2023-02-24T00:49:44.197Z,41.27
2023-02-24T00:52:20.734Z,37.40
2023-02-24T00:54:49.913Z,36.93
2023-02-24T00:57:21.702Z,36.67
2023-02-24T00:59:51.489Z,36.40
2023-02-24T01:02:18.890Z,35.93
2023-02-24T01:04:46.110Z,36.37
2023-02-24T01:07:13.347Z,36.67
2023-02-24T01:09:42.189Z,34.80
2023-02-24T01:12:38.443Z,37.20
2023-02-24T01:15:09.342Z,36.47
2023-02-24T01:17:38.343Z,34.30
2023-02-24T01:20:30.608Z,34.70
2023-02-24T01:22:58.278Z,35.90
2023-02-24T01:25:25.246Z,36.80
2023-02-24T01:27:54.290Z,35.50
2023-02-24T01:30:21.360Z,38.27
2023-02-24T01:32:48.682Z,35.83
2023-02-24T01:35:16.630Z,36.70
2023-02-24T01:37:43.615Z,35.67
2023-02-24T01:40:18.890Z,37.13
2023-02-24T01:42:47.905Z,35.50
2023-02-24T01:45:21.651Z,35.17
2023-02-24T01:47:50.058Z,33.47
2023-02-24T01:50:22.186Z,36.13
2023-02-24T01:52:56.299Z,35.00
2023-02-24T01:55:37.000Z,35.10
2023-02-24T01:58:19.512Z,34.67
2023-02-24T02:00:47.961Z,34.73
2023-02-24T02:03:32.793Z,33.90
2023-02-24T02:06:04.973Z,32.67
2023-02-24T02:08:33.307Z,34.00
2023-02-24T02:11:06.538Z,34.03
2023-02-24T02:13:36.030Z,33.93
2023-02-24T02:16:39.361Z,31.47
2023-02-24T02:19:55.911Z,32.43
2023-02-24T02:23:06.961Z,29.70
2023-02-24T02:25:58.466Z,29.23
2023-02-24T02:29:12.015Z,28.03
2023-02-24T02:32:43.681Z,28.83
2023-02-24T02:35:49.117Z,31.10
2023-02-24T02:38:31.699Z,28.47
2023-02-24T02:41:37.332Z,28.93
2023-02-24T02:44:40.377Z,29.23
2023-02-24T02:47:33.125Z,28.17
2023-02-24T02:50:08.374Z,30.70
2023-02-24T02:52:56.417Z,29.60
2023-02-24T02:55:40.489Z,29.17
2023-02-24T02:58:14.956Z,27.23
2023-02-24T03:01:01.854Z,27.63
2023-02-24T03:03:55.381Z,26.90
2023-02-24T03:06:35.194Z,25.20
2023-02-24T03:09:27.736Z,26.13
2023-02-24T03:12:04.603Z,26.80
2023-02-24T03:14:37.896Z,26.37
2023-02-24T03:17:22.611Z,26.30
2023-02-24T03:20:00.624Z,28.27
2023-02-24T03:22:42.549Z,23.80
2023-02-24T03:25:10.811Z,26.90
2023-02-24T03:27:57.218Z,29.27
2023-02-24T03:30:34.853Z,26.90
2023-02-24T03:33:26.579Z,25.20
2023-02-24T03:35:53.580Z,28.70
2023-02-24T03:38:24.123Z,25.53
2023-02-24T03:40:52.016Z,25.63
2023-02-24T03:43:26.675Z,27.10
2023-02-24T03:45:56.270Z,25.97
2023-02-24T03:48:25.831Z,27.67
2023-02-24T03:50:53.311Z,28.20
2023-02-24T03:53:41.140Z,27.30
2023-02-24T03:56:29.538Z,26.07
2023-02-24T03:59:02.360Z,24.70
2023-02-24T04:01:47.418Z,27.40
2023-02-24T04:04:33.439Z,26.50
2023-02-24T04:07:53.521Z,25.40
2023-02-24T04:10:52.848Z,25.60
2023-02-24T04:13:36.084Z,23.93
2023-02-24T04:16:17.080Z,24.03
2023-02-24T04:18:50.593Z,25.43
2023-02-24T04:21:20.945Z,26.13
2023-02-24T04:23:48.304Z,25.97
2023-02-24T04:26:18.226Z,25.30
2023-02-24T04:28:49.062Z,24.37
2023-02-24T04:31:18.716Z,23.97
2023-02-24T04:33:53.621Z,22.97
2023-02-24T04:36:22.312Z,24.23
2023-02-24T04:38:49.281Z,22.50
2023-02-24T04:41:23.689Z,25.27
2023-02-24T04:43:51.679Z,25.40
2023-02-24T04:46:20.266Z,25.47
2023-02-24T04:48:47.405Z,26.50
2023-02-24T04:51:14.536Z,25.57
2023-02-24T04:53:41.755Z,27.80
2023-02-24T04:56:09.576Z,28.30
2023-02-24T04:58:41.693Z,25.97
2023-02-24T05:01:10.980Z,27.13
2023-02-24T05:03:42.466Z,25.47
2023-02-24T05:06:16.744Z,25.97
2023-02-24T05:08:44.347Z,25.80
2023-02-24T05:11:18.582Z,25.73
2023-02-24T05:13:46.274Z,28.77
2023-02-24T05:16:16.984Z,26.33
2023-02-24T05:18:44.966Z,25.33
2023-02-24T05:21:36.020Z,27.63
2023-02-24T05:24:07.267Z,24.67
2023-02-24T05:26:42.078Z,25.97
2023-02-24T05:29:11.116Z,28.50
2023-02-24T05:31:38.749Z,25.70
2023-02-24T05:34:08.569Z,27.10
2023-02-24T05:36:40.833Z,28.07
2023-02-24T05:39:12.550Z,27.93
2023-02-24T05:41:43.438Z,27.10
2023-02-24T05:44:17.179Z,27.20
2023-02-24T05:46:47.197Z,26.57
2023-02-24T05:49:27.208Z,26.53
2023-02-24T05:51:58.098Z,25.47
2023-02-24T05:54:40.254Z,25.33
2023-02-24T05:57:15.494Z,27.40
2023-02-24T05:59:45.133Z,27.17
2023-02-24T06:02:15.037Z,28.00
2023-02-24T06:04:54.107Z,25.20
2023-02-24T06:07:25.199Z,27.70
2023-02-24T06:09:57.644Z,27.13
2023-02-24T06:12:32.113Z,24.80
2023-02-24T06:14:59.386Z,24.57
2023-02-24T06:17:28.556Z,25.60
2023-02-24T06:19:56.163Z,29.47
2023-02-24T06:22:26.223Z,26.70
2023-02-24T06:24:57.116Z,29.93
2023-02-24T06:27:25.447Z,26.40
2023-02-24T06:29:55.017Z,27.00
2023-02-24T06:32:26.668Z,26.20
2023-02-24T06:34:55.169Z,27.07
2023-02-24T06:37:23.493Z,24.70
2023-02-24T06:39:50.717Z,26.10
2023-02-24T06:42:17.689Z,25.70
2023-02-24T06:44:45.547Z,24.90
2023-02-24T06:47:16.505Z,27.40
2023-02-24T06:49:43.539Z,26.40
2023-02-24T06:52:12.037Z,27.30
2023-02-24T06:54:39.141Z,26.47
2023-02-24T06:57:06.601Z,26.90
2023-02-24T06:59:34.426Z,28.23
2023-02-24T07:02:03.584Z,26.70
2023-02-24T07:04:30.987Z,29.70
2023-02-24T07:07:03.757Z,29.40
2023-02-24T07:09:32.333Z,29.00
2023-02-24T07:12:02.823Z,27.37
2023-02-24T07:14:31.550Z,27.47
2023-02-24T07:16:59.839Z,29.17
2023-02-24T07:19:30.146Z,31.67
2023-02-24T07:22:00.505Z,29.57
2023-02-24T07:24:36.861Z,28.60
2023-02-24T07:27:08.123Z,28.60
2023-02-24T07:29:37.903Z,32.13
2023-02-24T07:32:09.390Z,27.80
2023-02-24T07:34:40.521Z,26.70
2023-02-24T07:37:09.688Z,24.47
2023-02-24T07:39:39.738Z,25.73
2023-02-24T07:42:15.218Z,25.40
2023-02-24T07:44:44.838Z,20.23
2023-02-24T07:47:11.989Z,23.00
2023-02-24T07:49:41.290Z,22.60
2023-02-24T07:52:09.184Z,21.50
2023-02-24T07:54:39.529Z,22.03
2023-02-24T07:57:14.248Z,20.27
2023-02-24T07:59:45.281Z,18.67
2023-02-24T08:02:13.955Z,19.90
2023-02-24T08:04:44.551Z,20.80
2023-02-24T08:07:14.689Z,23.63
2023-02-24T08:09:46.380Z,21.77
2023-02-24T08:12:22.803Z,19.50
2023-02-24T08:14:53.814Z,21.70
2023-02-24T08:17:26.834Z,21.97
2023-02-24T08:20:16.188Z,23.70
2023-02-24T08:22:47.305Z,21.77
2023-02-24T08:25:19.693Z,23.40
2023-02-24T08:28:08.861Z,23.13
2023-02-24T08:30:45.635Z,21.40
2023-02-24T08:33:22.520Z,22.93
2023-02-24T08:36:01.606Z,21.73
2023-02-24T08:38:42.718Z,22.03
2023-02-24T08:41:21.836Z,20.30
2023-02-24T08:43:50.344Z,22.13
2023-02-24T08:46:26.870Z,21.57
2023-02-24T08:49:01.371Z,21.23
2023-02-24T08:51:35.941Z,20.97
2023-02-24T08:54:11.675Z,22.17
2023-02-24T08:56:44.026Z,20.87
2023-02-24T08:59:40.825Z,21.13
2023-02-24T09:02:23.314Z,20.10
2023-02-24T09:05:14.402Z,19.77
2023-02-24T09:07:42.353Z,19.43
2023-02-24T09:10:18.066Z,20.80
2023-02-24T09:12:46.027Z,18.77
2023-02-24T09:15:16.153Z,19.43
2023-02-24T09:17:46.322Z,19.20
2023-02-24T09:20:43.019Z,18.93
2023-02-24T09:23:20.385Z,17.20
2023-02-24T09:25:54.726Z,17.20
2023-02-24T09:28:25.020Z,19.00
2023-02-24T09:30:59.094Z,17.90
2023-02-24T09:33:39.431Z,18.57
2023-02-24T09:36:20.654Z,15.70
2023-02-24T09:39:00.797Z,16.60
2023-02-24T09:42:18.357Z,17.13
2023-02-24T09:44:53.059Z,18.10
2023-02-24T09:47:40.755Z,17.17
2023-02-24T09:50:40.701Z,16.30
2023-02-24T09:53:17.788Z,15.40
2023-02-24T09:56:04.148Z,16.83
2023-02-24T09:58:53.578Z,17.53
2023-02-24T10:01:31.407Z,16.03
2023-02-24T10:04:20.556Z,17.17
2023-02-24T10:06:51.535Z,15.80
2023-02-24T10:09:33.633Z,16.00
2023-02-24T10:12:17.637Z,16.80
2023-02-24T10:15:21.189Z,15.27
2023-02-24T10:17:55.737Z,16.07
2023-02-24T10:20:45.897Z,14.53
2023-02-24T10:23:35.632Z,14.97
2023-02-24T10:26:34.993Z,14.00
2023-02-24T10:29:29.669Z,15.43
2023-02-24T10:32:24.505Z,14.80
2023-02-24T10:34:53.627Z,14.40
2023-02-24T10:37:29.248Z,16.27
2023-02-24T10:40:10.342Z,15.33
2023-02-24T10:42:46.092Z,12.60
2023-02-24T10:45:25.950Z,13.77
2023-02-24T10:47:59.709Z,14.43
2023-02-24T10:50:54.965Z,14.10
2023-02-24T10:53:38.045Z,13.87
2023-02-24T10:56:42.056Z,13.63
2023-02-24T10:59:38.883Z,13.33
2023-02-24T11:02:32.724Z,14.47
2023-02-24T11:05:27.558Z,12.10
2023-02-24T11:08:36.905Z,13.80
2023-02-24T11:11:31.064Z,13.27
2023-02-24T11:14:21.034Z,12.50
2023-02-24T11:17:09.796Z,15.63
2023-02-24T11:19:58.897Z,13.67
2023-02-24T11:22:34.082Z,15.10
2023-02-24T11:25:46.343Z,13.10
2023-02-24T11:28:33.574Z,14.30
2023-02-24T11:31:38.635Z,28.90
2023-02-24T11:34:49.780Z,20.47
2023-02-24T11:37:53.761Z,14.90
2023-02-24T11:40:27.431Z,12.93
2023-02-24T11:43:24.402Z,14.30
2023-02-24T11:45:57.339Z,12.43
2023-02-24T11:48:34.884Z,13.40
2023-02-24T11:51:14.721Z,13.60
2023-02-24T11:53:54.194Z,14.20
2023-02-24T11:56:26.689Z,13.10
2023-02-24T11:59:17.991Z,15.83
2023-02-24T12:02:11.605Z,15.47
2023-02-24T12:04:51.310Z,15.60
2023-02-24T12:07:21.154Z,16.00
2023-02-24T12:10:15.963Z,16.00
2023-02-24T12:13:15.895Z,16.73
2023-02-24T12:16:15.695Z,18.17
2023-02-24T12:18:55.240Z,18.73
2023-02-24T12:21:34.225Z,18.37
2023-02-24T12:24:02.463Z,15.77
2023-02-24T12:26:56.193Z,17.40
2023-02-24T12:30:23.387Z,18.80
2023-02-24T12:32:57.749Z,19.07
2023-02-24T12:35:49.638Z,17.97
2023-02-24T12:39:29.948Z,18.07
2023-02-24T12:42:49.871Z,17.20
2023-02-24T12:45:18.052Z,19.37
2023-02-24T12:48:27.714Z,18.60
2023-02-24T12:51:00.180Z,18.50
2023-02-24T12:54:03.963Z,18.57
2023-02-24T12:56:56.391Z,18.27
2023-02-24T12:59:30.119Z,18.50
2023-02-24T13:02:31.490Z,18.07
2023-02-24T13:05:17.183Z,18.30
2023-02-24T13:08:07.692Z,18.77
2023-02-24T13:10:47.879Z,17.07
2023-02-24T13:13:48.975Z,17.30
2023-02-24T13:16:15.994Z,18.00
2023-02-24T13:18:43.014Z,17.60
2023-02-24T13:21:25.342Z,17.73
2023-02-24T13:24:00.023Z,17.50
2023-02-24T13:26:31.233Z,16.33
2023-02-24T13:29:18.740Z,17.67
2023-02-24T13:31:53.389Z,16.63
2023-02-24T13:34:29.826Z,15.67
2023-02-24T13:36:59.199Z,14.70
2023-02-24T13:39:35.656Z,13.80
2023-02-24T13:42:22.592Z,17.67
2023-02-24T13:45:04.012Z,14.00
2023-02-24T13:48:13.081Z,12.57
2023-02-24T13:51:27.813Z,13.23
2023-02-24T13:54:23.974Z,16.97
2023-02-24T13:57:20.665Z,11.17
2023-02-24T14:00:22.130Z,13.80
2023-02-24T14:02:53.339Z,14.10
2023-02-24T14:05:36.173Z,13.30
2023-02-24T14:08:05.349Z,10.97
2023-02-24T14:10:36.526Z,46.67
2023-02-24T14:13:29.212Z,13.13
2023-02-24T14:15:57.220Z,10.37
2023-02-24T14:18:29.819Z,10.07
2023-02-24T14:20:59.199Z,10.87
2023-02-24T14:23:34.990Z,47.30
2023-02-24T14:26:06.198Z,18.93
2023-02-24T14:28:37.990Z,11.77
2023-02-24T14:31:23.087Z,29.50
2023-02-24T14:33:59.228Z,11.33
2023-02-24T14:36:36.763Z,11.20
2023-02-24T14:39:16.268Z,24.33
2023-02-24T14:41:45.175Z,11.30
2023-02-24T14:44:27.123Z,11.30
2023-02-24T14:46:59.969Z,11.63
2023-02-24T14:49:33.346Z,10.60
2023-02-24T14:52:34.596Z,11.33
2023-02-24T14:55:06.918Z,10.57
2023-02-24T14:57:39.861Z,9.47
2023-02-24T15:00:22.187Z,10.70
2023-02-24T15:03:04.919Z,10.10
2023-02-24T15:05:32.514Z,9.37
2023-02-24T15:08:02.651Z,9.13
2023-02-24T15:10:32.080Z,10.27
2023-02-24T15:13:11.693Z,9.27
2023-02-24T15:15:39.684Z,10.30
2023-02-24T15:18:31.755Z,10.33
2023-02-24T15:21:05.838Z,10.63
2023-02-24T15:23:37.562Z,11.00
2023-02-24T15:26:24.224Z,10.23
2023-02-24T15:29:02.931Z,10.03
2023-02-24T15:31:31.076Z,9.57
2023-02-24T15:34:01.539Z,10.27
2023-02-24T15:36:36.222Z,10.20
2023-02-24T15:39:10.447Z,9.63
2023-02-24T15:41:46.851Z,9.53
2023-02-24T15:44:33.146Z,9.93
2023-02-24T15:47:17.430Z,9.33
2023-02-24T15:49:44.300Z,9.27
2023-02-24T15:52:11.848Z,10.43
2023-02-24T15:54:42.490Z,10.33
2023-02-24T15:57:18.044Z,10.27
2023-02-24T15:59:45.544Z,11.87
2023-02-24T16:02:20.179Z,9.50
2023-02-24T16:04:49.327Z,10.87
2023-02-24T16:07:28.557Z,12.77
2023-02-24T16:09:58.757Z,34.60
2023-02-24T16:12:32.561Z,60.10
2023-02-24T16:15:06.611Z,52.10
2023-02-24T16:24:24.290Z,16.67
2023-02-24T16:26:51.270Z,16.03
2023-02-24T16:29:18.353Z,19.03
2023-02-24T16:31:45.383Z,16.77
2023-02-24T16:34:16.021Z,16.37
2023-02-24T16:36:44.215Z,14.60
2023-02-24T16:39:14.645Z,13.90
2023-02-24T16:41:41.699Z,15.73
2023-02-24T16:44:09.552Z,16.30
2023-02-24T16:46:41.450Z,40.57
2023-02-24T16:49:13.898Z,24.17
2023-02-24T16:51:40.856Z,31.67
2023-02-24T16:54:08.793Z,19.90
2023-02-24T16:56:35.920Z,16.17
2023-02-24T16:59:04.819Z,15.40
2023-02-24T17:01:32.227Z,15.47
2023-02-24T17:03:59.418Z,15.97
2023-02-24T17:06:26.890Z,30.43
2023-02-24T17:08:54.454Z,20.50
2023-02-24T17:11:25.747Z,18.90
2023-02-24T17:13:52.802Z,21.80
2023-02-24T17:16:21.269Z,21.30
2023-02-24T17:18:48.568Z,20.30
2023-02-24T17:21:18.157Z,21.43
2023-02-24T17:23:45.133Z,25.20
2023-02-24T17:26:15.707Z,25.20
2023-02-24T17:28:43.483Z,24.33
2023-02-24T17:31:10.599Z,23.47
2023-02-24T17:33:37.739Z,23.13
2023-02-24T17:36:04.846Z,23.73
2023-02-24T17:38:31.956Z,20.37
2023-02-24T17:41:00.823Z,19.13
2023-02-24T17:43:29.058Z,17.43
2023-02-24T17:45:56.039Z,18.23
2023-02-24T17:48:23.283Z,17.17
2023-02-24T17:50:50.267Z,14.90
2023-02-24T17:53:17.222Z,15.20
2023-02-24T17:56:01.508Z,16.07
2023-02-24T17:58:29.411Z,15.90
2023-02-24T18:00:56.574Z,16.07
2023-02-24T18:03:23.721Z,16.73
2023-02-24T18:06:04.641Z,16.70
2023-02-24T18:08:34.759Z,16.00
2023-02-24T18:11:02.379Z,18.33
2023-02-24T18:13:31.330Z,15.20
2023-02-24T18:15:58.737Z,14.90
2023-02-24T18:18:30.438Z,28.10
2023-02-24T18:21:02.601Z,15.43
2023-02-24T18:23:30.308Z,16.20
2023-02-24T18:26:01.964Z,12.77
2023-02-24T18:28:29.092Z,11.20
2023-02-24T18:30:56.115Z,8.47
2023-02-24T18:33:23.335Z,10.93
2023-02-24T18:36:02.139Z,9.50
2023-02-24T18:38:29.946Z,8.00
2023-02-24T18:41:09.496Z,6.73
2023-02-24T18:43:37.103Z,5.40
2023-02-24T18:46:07.480Z,6.10
2023-02-24T18:48:35.542Z,6.50
2023-02-24T18:51:02.530Z,5.80
2023-02-24T18:53:37.074Z,5.03
2023-02-24T18:56:07.601Z,6.07
2023-02-24T18:58:37.234Z,4.70
2023-02-24T19:01:13.386Z,4.67
2023-02-24T19:03:42.018Z,4.07
2023-02-24T19:06:10.302Z,6.07
2023-02-24T19:08:38.983Z,6.03
2023-02-24T19:11:15.392Z,4.87
2023-02-24T19:13:42.978Z,5.23
2023-02-24T19:16:10.809Z,5.60
2023-02-24T19:18:37.964Z,4.90
2023-02-24T19:21:08.172Z,4.73
2023-02-24T19:23:37.600Z,4.50
2023-02-24T19:26:07.431Z,4.77
2023-02-24T19:28:34.488Z,5.40
2023-02-24T19:31:01.452Z,5.00
2023-02-24T19:33:28.392Z,6.63
2023-02-24T19:35:59.805Z,4.67
2023-02-24T19:38:27.071Z,5.67
2023-02-24T19:40:58.918Z,5.03
2023-02-24T19:43:26.416Z,4.10
2023-02-24T19:45:53.499Z,4.50
2023-02-24T19:48:20.439Z,4.93
2023-02-24T19:50:47.402Z,4.67
2023-02-24T19:53:14.455Z,4.40
2023-02-24T19:55:41.516Z,5.60
2023-02-24T19:58:08.591Z,6.40
2023-02-24T20:00:35.496Z,8.17
2023-02-24T20:03:02.438Z,5.07
2023-02-24T20:05:29.378Z,5.07
2023-02-24T20:07:56.507Z,6.20
2023-02-24T20:10:24.347Z,6.30
2023-02-24T20:12:51.220Z,6.00
2023-02-24T20:15:18.307Z,6.37
2023-02-24T20:17:45.536Z,6.37
2023-02-24T20:20:13.252Z,6.50
2023-02-24T20:22:40.303Z,6.73
2023-02-24T20:25:08.336Z,5.13
2023-02-24T20:27:36.952Z,4.57
2023-02-24T20:30:04.530Z,6.20
2023-02-24T20:32:31.696Z,5.10
2023-02-24T20:34:58.969Z,6.03
2023-02-24T20:37:25.966Z,6.30
2023-02-24T20:39:52.943Z,5.80
2023-02-24T20:42:19.876Z,5.33
2023-02-24T20:44:46.955Z,4.93
2023-02-24T20:47:13.960Z,4.80
2023-02-24T20:49:41.063Z,4.70
2023-02-24T20:52:08.378Z,4.73
2023-02-24T20:54:35.429Z,5.57
2023-02-24T20:57:02.451Z,5.90
2023-02-24T20:59:29.492Z,5.23
2023-02-24T21:01:56.477Z,4.80
2023-02-24T21:04:23.373Z,5.60
2023-02-24T21:06:52.041Z,5.63
2023-02-24T21:09:19.021Z,5.27
2023-02-24T21:11:45.964Z,6.23
2023-02-24T21:14:17.038Z,6.93
2023-02-24T21:16:46.311Z,6.03
2023-02-24T21:19:14.362Z,5.73
2023-02-24T21:21:41.533Z,5.60
2023-02-24T21:24:08.934Z,2.60
2023-02-24T21:26:35.845Z,2.00
2023-02-24T21:29:02.777Z,2.37
2023-02-24T21:31:29.929Z,2.67
2023-02-24T21:33:57.316Z,2.20
2023-02-24T21:36:26.433Z,2.20
2023-02-24T21:38:54.944Z,2.00
2023-02-24T21:41:23.813Z,2.30
2023-02-24T21:43:55.607Z,2.93
2023-02-24T21:46:28.284Z,3.00
2023-02-24T21:49:00.541Z,2.47
2023-02-24T21:51:29.320Z,2.90
2023-02-24T21:53:57.787Z,2.60
2023-02-24T21:56:28.443Z,3.60
2023-02-24T21:59:02.267Z,3.10
2023-02-24T22:01:47.189Z,3.40
2023-02-24T22:04:19.247Z,5.10
2023-02-24T22:06:46.325Z,3.77
2023-02-24T22:09:19.732Z,5.00
2023-02-24T22:11:49.387Z,4.70
2023-02-24T22:14:17.490Z,4.77
2023-02-24T22:16:45.174Z,6.10
2023-02-24T22:19:12.997Z,7.53
2023-02-24T22:21:42.628Z,6.47
2023-02-24T22:24:14.630Z,6.00
2023-02-24T22:26:43.212Z,6.80
2023-02-24T22:29:11.583Z,6.60
2023-02-24T22:31:39.370Z,6.73
2023-02-24T22:34:06.680Z,7.70
2023-02-24T22:36:36.878Z,6.00
2023-02-24T22:39:05.673Z,6.63
2023-02-24T22:41:35.011Z,6.37
2023-02-24T22:44:04.848Z,6.10
2023-02-24T22:46:37.960Z,6.67
2023-02-24T22:49:06.044Z,7.47
2023-02-24T22:51:33.193Z,6.03
2023-02-24T22:54:00.296Z,7.53
2023-02-24T22:56:30.361Z,5.87
2023-02-24T22:58:59.473Z,6.50
2023-02-24T23:01:38.260Z,7.53
2023-02-24T23:04:11.287Z,6.40
2023-02-24T23:06:38.236Z,7.00
2023-02-24T23:09:06.686Z,7.30
2023-02-24T23:11:43.492Z,6.03
2023-02-24T23:14:14.069Z,6.10
2023-02-24T23:16:44.836Z,7.03
2023-02-24T23:19:17.053Z,6.47
2023-02-24T23:21:47.849Z,6.60
2023-02-24T23:24:16.879Z,5.70
2023-02-24T23:26:54.447Z,4.90
2023-02-24T23:29:23.775Z,3.73
2023-02-24T23:31:52.632Z,4.17
2023-02-24T23:34:19.858Z,5.40
2023-02-24T23:36:48.089Z,4.07
2023-02-24T23:39:20.612Z,5.10
2023-02-24T23:41:47.884Z,4.93
2023-02-24T23:44:15.059Z,5.03
2023-02-24T23:46:42.042Z,5.10
2023-02-24T23:49:09.300Z,4.70
2023-02-24T23:51:47.703Z,4.53
2023-02-24T23:54:18.008Z,5.93
2023-02-24T23:56:45.574Z,7.27
2023-02-24T23:59:12.525Z,7.07
